createdAt,value
2023-02-15T00:02:14.127Z,45.00
2023-02-15T00:04:51.078Z,47.67
2023-02-15T00:07:19.559Z,44.03
2023-02-15T00:09:47.083Z,49.03
2023-02-15T00:12:14.464Z,43.33
2023-02-15T00:14:42.966Z,45.45
2023-02-15T00:17:13.014Z,44.65
2023-02-15T00:19:40.891Z,44.60
2023-02-15T00:24:35.624Z,39.95
2023-02-15T00:27:02.973Z,42.30
2023-02-15T00:29:30.422Z,40.33
2023-02-15T00:31:57.808Z,38.53
2023-02-15T00:34:28.464Z,39.30
2023-02-15T00:36:57.881Z,42.17
2023-02-15T00:39:26.388Z,41.75
2023-02-15T00:41:53.741Z,44.00
2023-02-15T00:44:21.106Z,42.75
2023-02-15T00:46:48.847Z,46.90
2023-02-15T00:49:16.630Z,39.75
2023-02-15T00:51:45.295Z,44.92
2023-02-15T00:54:12.658Z,45.05
2023-02-15T00:56:40.020Z,52.80
2023-02-15T00:59:07.508Z,54.47
2023-02-15T01:01:34.935Z,47.67
2023-02-15T01:04:03.138Z,43.50
2023-02-15T01:06:31.556Z,50.90
2023-02-15T01:09:00.287Z,47.47
2023-02-15T01:11:27.659Z,48.85
2023-02-15T01:13:55.916Z,47.28
2023-02-15T01:16:23.740Z,48.55
2023-02-15T01:21:19.513Z,54.33
2023-02-15T01:23:47.124Z,49.97
2023-02-15T01:26:16.311Z,47.95
2023-02-15T01:28:45.492Z,50.55
2023-02-15T01:33:42.804Z,46.72
2023-02-15T01:36:11.075Z,50.40
2023-02-15T01:38:40.762Z,57.55
2023-02-15T01:41:24.729Z,44.70
2023-02-15T01:43:57.262Z,51.55
2023-02-15T01:46:28.147Z,61.83
2023-02-15T01:49:00.318Z,42.20
2023-02-15T01:51:29.538Z,49.67
2023-02-15T01:54:03.760Z,48.15
2023-02-15T01:56:33.377Z,46.95
2023-02-15T01:59:06.727Z,51.85
2023-02-15T02:01:34.210Z,50.65
2023-02-15T02:04:10.101Z,50.88
2023-02-15T02:06:38.809Z,48.65
2023-02-15T02:09:11.192Z,50.03
2023-02-15T02:11:41.814Z,59.05
2023-02-15T02:14:10.985Z,53.45
2023-02-15T02:16:44.180Z,58.50
2023-02-15T02:19:30.755Z,53.40
2023-02-15T02:22:22.967Z,52.78
2023-02-15T02:25:14.634Z,55.55
2023-02-15T02:27:48.708Z,43.67
2023-02-15T02:30:25.717Z,46.67
2023-02-15T02:33:09.674Z,47.90
2023-02-15T02:35:40.765Z,52.75
2023-02-15T02:38:10.614Z,46.63
2023-02-15T02:40:42.089Z,47.95
2023-02-15T02:43:13.268Z,43.65
2023-02-15T02:45:43.311Z,50.83
2023-02-15T02:48:17.341Z,54.15
2023-02-15T02:50:46.705Z,53.65
2023-02-15T02:53:15.435Z,47.83
2023-02-15T02:55:46.407Z,51.33
2023-02-15T02:58:18.450Z,58.22
2023-02-15T03:00:54.285Z,48.60
2023-02-15T03:03:27.242Z,46.13
2023-02-15T03:05:56.732Z,48.08
2023-02-15T03:08:29.018Z,53.67
2023-02-15T03:11:00.496Z,54.28
2023-02-15T03:13:31.222Z,55.53
2023-02-15T03:16:16.353Z,53.90
2023-02-15T03:18:53.514Z,44.92
2023-02-15T03:21:26.335Z,54.35
2023-02-15T03:24:01.875Z,50.53
2023-02-15T03:26:36.645Z,47.00
2023-02-15T03:29:05.193Z,49.20
2023-02-15T03:31:37.241Z,52.63
2023-02-15T03:34:08.459Z,60.90
2023-02-15T03:36:42.350Z,50.65
2023-02-15T03:39:12.545Z,62.50
2023-02-15T03:41:56.534Z,49.53
2023-02-15T03:44:27.161Z,65.43
2023-02-15T03:46:57.880Z,51.70
2023-02-15T03:49:29.207Z,52.58
2023-02-15T03:51:58.031Z,52.22
2023-02-15T03:54:46.855Z,52.90
2023-02-15T03:57:34.167Z,58.22
2023-02-15T04:00:24.910Z,51.35
2023-02-15T04:03:13.214Z,53.58
2023-02-15T04:05:42.856Z,55.95
2023-02-15T04:08:17.234Z,60.92
2023-02-15T04:10:56.981Z,61.10
2023-02-15T04:13:29.718Z,48.50
2023-02-15T04:16:06.396Z,51.17
2023-02-15T04:18:54.586Z,50.10
2023-02-15T04:21:41.247Z,56.97
2023-02-15T04:24:26.966Z,47.92
2023-02-15T04:26:59.555Z,53.85
2023-02-15T04:29:27.729Z,46.22
2023-02-15T04:31:56.233Z,58.42
2023-02-15T04:34:27.310Z,51.97
2023-02-15T04:36:56.107Z,52.75
2023-02-15T04:39:23.608Z,62.47
2023-02-15T04:41:51.052Z,54.58
2023-02-15T04:44:18.667Z,48.53
2023-02-15T04:46:50.102Z,57.40
2023-02-15T04:49:17.770Z,55.67
2023-02-15T04:51:45.424Z,53.88
2023-02-15T04:54:17.124Z,58.03
2023-02-15T04:56:48.524Z,48.10
2023-02-15T04:59:18.018Z,48.13
2023-02-15T05:01:45.583Z,43.63
2023-02-15T05:04:15.084Z,46.95
2023-02-15T05:06:47.484Z,56.33
2023-02-15T05:09:21.112Z,61.33
2023-02-15T05:11:49.960Z,54.90
2023-02-15T05:14:17.432Z,51.90
2023-02-15T05:16:44.865Z,53.35
2023-02-15T05:19:12.744Z,53.25
2023-02-15T05:24:34.923Z,55.63
2023-02-15T05:27:26.152Z,49.45
2023-02-15T05:29:58.927Z,57.63
2023-02-15T05:32:28.992Z,61.55
2023-02-15T05:34:58.566Z,59.00
2023-02-15T05:37:25.986Z,53.05
2023-02-15T05:39:54.779Z,57.67
2023-02-15T05:42:28.971Z,52.85
2023-02-15T05:44:58.064Z,62.97
2023-02-15T05:47:25.450Z,54.63
2023-02-15T05:49:54.705Z,63.42
2023-02-15T05:52:22.518Z,48.85
2023-02-15T05:54:52.877Z,55.92
2023-02-15T05:57:25.762Z,63.00
2023-02-15T05:59:57.567Z,61.28
2023-02-15T06:02:25.000Z,54.10
2023-02-15T06:04:52.553Z,55.25
2023-02-15T06:07:20.050Z,48.45
2023-02-15T06:09:50.203Z,59.20
2023-02-15T06:12:19.747Z,81.70
2023-02-15T06:14:47.465Z,57.97
2023-02-15T06:17:17.474Z,64.10
2023-02-15T06:19:46.419Z,62.53
2023-02-15T06:22:17.032Z,56.63
2023-02-15T06:24:44.552Z,70.85
2023-02-15T06:27:12.383Z,48.75
2023-02-15T06:32:10.772Z,51.42
2023-02-15T06:34:41.137Z,49.45
2023-02-15T06:37:09.483Z,57.70
2023-02-15T06:39:38.406Z,66.90
2023-02-15T06:42:05.821Z,66.00
2023-02-15T06:44:38.598Z,70.63
2023-02-15T06:47:08.108Z,66.85
2023-02-15T06:49:36.660Z,72.43
2023-02-15T06:52:08.047Z,48.63
2023-02-15T06:54:37.077Z,61.97
2023-02-15T06:57:04.441Z,56.38
2023-02-15T06:59:33.448Z,57.75
2023-02-15T07:02:03.653Z,61.28
2023-02-15T07:04:31.544Z,68.07
2023-02-15T07:09:27.707Z,52.28
2023-02-15T07:12:12.815Z,54.33
2023-02-15T07:14:41.439Z,56.15
2023-02-15T07:17:27.490Z,50.20
2023-02-15T07:20:00.881Z,76.75
2023-02-15T07:22:30.897Z,55.30
2023-02-15T07:25:04.012Z,58.13
2023-02-15T07:27:32.262Z,52.88
2023-02-15T07:29:59.726Z,53.30
2023-02-15T07:32:29.003Z,58.25
2023-02-15T07:34:57.079Z,55.80
2023-02-15T07:37:25.667Z,49.85
2023-02-15T07:39:53.251Z,49.63
2023-02-15T07:42:22.841Z,69.20
2023-02-15T07:44:56.166Z,62.90
2023-02-15T07:47:24.525Z,44.15
2023-02-15T07:49:52.036Z,58.75
2023-02-15T07:52:21.831Z,50.15
2023-02-15T07:54:51.826Z,58.50
2023-02-15T07:57:19.352Z,66.75
2023-02-15T07:59:51.094Z,60.15
2023-02-15T08:02:19.115Z,60.08
2023-02-15T08:04:49.242Z,53.83
2023-02-15T08:07:18.473Z,64.40
2023-02-15T08:09:45.971Z,59.47
2023-02-15T08:12:13.352Z,72.40
2023-02-15T08:14:41.009Z,58.80
2023-02-15T08:19:37.294Z,60.00
2023-02-15T08:22:09.819Z,73.22
2023-02-15T08:24:38.815Z,52.78
2023-02-15T08:27:06.939Z,61.22
2023-02-15T08:32:03.881Z,69.95
2023-02-15T08:34:35.138Z,53.10
2023-02-15T08:37:04.282Z,59.70
2023-02-15T08:39:34.795Z,54.72
2023-02-15T08:42:03.896Z,58.15
2023-02-15T08:44:31.593Z,59.20
2023-02-15T08:47:03.674Z,58.75
2023-02-15T08:49:33.228Z,83.65
2023-02-15T08:52:01.024Z,68.65
2023-02-15T08:54:32.098Z,72.85
2023-02-15T08:57:00.979Z,68.85
2023-02-15T08:59:28.403Z,58.05
2023-02-15T09:01:56.190Z,54.25
2023-02-15T09:06:51.692Z,58.10
2023-02-15T09:09:19.753Z,63.92
2023-02-15T09:11:50.014Z,58.95
2023-02-15T09:14:20.988Z,63.58
2023-02-15T09:16:51.983Z,64.70
2023-02-15T09:19:21.302Z,67.78
2023-02-15T09:21:49.304Z,60.10
2023-02-15T09:26:45.811Z,58.55
2023-02-15T09:29:17.630Z,61.70
2023-02-15T09:31:48.188Z,57.85
2023-02-15T09:34:17.244Z,57.90
2023-02-15T09:36:48.918Z,60.72
2023-02-15T09:39:19.965Z,59.97
2023-02-15T09:42:14.378Z,55.40
2023-02-15T09:44:55.155Z,54.13
2023-02-15T09:47:34.926Z,61.90
2023-02-15T09:50:06.312Z,49.30
2023-02-15T09:52:40.755Z,49.78
2023-02-15T09:55:17.900Z,48.13
2023-02-15T09:57:49.033Z,54.10
2023-02-15T10:00:27.732Z,45.58
2023-02-15T10:03:07.141Z,56.03
2023-02-15T10:05:45.840Z,40.33
2023-02-15T10:08:37.065Z,45.25
2023-02-15T10:11:26.312Z,45.58
2023-02-15T10:14:03.916Z,48.97
2023-02-15T10:16:38.753Z,48.35
2023-02-15T10:19:14.417Z,55.40
2023-02-15T10:21:48.508Z,50.00
2023-02-15T10:24:40.541Z,39.72
2023-02-15T10:27:13.055Z,52.20
2023-02-15T10:29:41.160Z,49.67
2023-02-15T10:32:20.218Z,45.10
2023-02-15T10:34:52.518Z,45.70
2023-02-15T10:37:33.874Z,49.38
2023-02-15T10:40:16.038Z,47.97
2023-02-15T10:42:52.242Z,48.28
2023-02-15T10:45:24.842Z,46.88
2023-02-15T10:48:08.511Z,48.03
2023-02-15T10:50:44.335Z,41.33
2023-02-15T10:53:22.789Z,42.30
2023-02-15T10:55:57.809Z,45.42
2023-02-15T10:58:31.832Z,79.15
2023-02-15T11:01:06.284Z,45.80
2023-02-15T11:03:41.740Z,40.03
2023-02-15T11:06:13.257Z,35.38
2023-02-15T11:08:42.593Z,33.30
2023-02-15T11:11:11.457Z,34.92
2023-02-15T11:13:47.297Z,34.90
2023-02-15T11:16:19.228Z,43.15
2023-02-15T11:18:53.406Z,36.55
2023-02-15T11:21:22.682Z,37.45
2023-02-15T11:23:55.621Z,31.40
2023-02-15T11:26:26.589Z,32.22
2023-02-15T11:28:58.698Z,38.13
2023-02-15T11:31:30.334Z,28.17
2023-02-15T11:34:03.820Z,35.88
2023-02-15T11:36:34.531Z,30.17
2023-02-15T11:39:09.401Z,31.23
2023-02-15T11:41:40.737Z,47.10
2023-02-15T11:44:10.499Z,35.60
2023-02-15T11:46:42.083Z,34.25
2023-02-15T11:49:22.612Z,40.70
2023-02-15T11:51:54.074Z,41.63
2023-02-15T11:54:26.275Z,46.90
2023-02-15T11:56:55.641Z,39.50
2023-02-15T11:59:28.198Z,29.38
2023-02-15T12:01:55.759Z,34.55
2023-02-15T12:04:26.736Z,41.22
2023-02-15T12:07:02.761Z,37.85
2023-02-15T12:09:35.256Z,33.67
2023-02-15T12:12:22.794Z,36.15
2023-02-15T12:17:18.030Z,34.55
2023-02-15T12:19:53.532Z,33.28
2023-02-15T12:22:28.587Z,32.53
2023-02-15T12:32:26.193Z,23.30
2023-02-15T12:34:59.357Z,28.58
2023-02-15T12:37:35.529Z,21.52
2023-02-15T12:40:05.195Z,25.65
2023-02-15T12:42:45.642Z,20.35
2023-02-15T12:45:26.233Z,20.67
2023-02-15T12:48:11.264Z,25.05
2023-02-15T12:50:41.379Z,18.80
2023-02-15T12:53:12.539Z,21.67
2023-02-15T12:55:45.415Z,22.35
2023-02-15T12:58:19.020Z,18.73
2023-02-15T13:00:46.665Z,23.98
2023-02-15T13:03:22.232Z,21.88
2023-02-15T13:05:54.892Z,20.45
2023-02-15T13:08:26.034Z,26.80
2023-02-15T13:10:57.732Z,18.13
2023-02-15T13:13:29.923Z,24.13
2023-02-15T13:16:00.081Z,19.17
2023-02-15T13:18:33.791Z,18.45
2023-02-15T13:21:15.487Z,18.25
2023-02-15T13:23:52.227Z,21.75
2023-02-15T13:26:21.243Z,18.00
2023-02-15T13:28:51.240Z,17.52
2023-02-15T13:31:23.499Z,18.73
2023-02-15T13:33:57.648Z,19.75
2023-02-15T13:36:36.054Z,17.50
2023-02-15T13:39:09.289Z,16.20
2023-02-15T13:41:42.776Z,19.13
2023-02-15T13:44:14.530Z,18.02
2023-02-15T13:46:51.527Z,19.65
2023-02-15T13:49:21.842Z,16.30
2023-02-15T13:51:57.259Z,15.55
2023-02-15T13:54:35.215Z,22.65
2023-02-15T13:57:10.642Z,20.48
2023-02-15T13:59:54.586Z,23.98
2023-02-15T14:02:50.484Z,21.80
2023-02-15T14:05:32.999Z,18.67
2023-02-15T14:08:08.617Z,24.48
2023-02-15T14:10:53.996Z,15.70
2023-02-15T14:13:36.295Z,22.13
2023-02-15T14:16:07.223Z,19.67
2023-02-15T14:18:38.037Z,17.50
2023-02-15T14:21:14.580Z,17.17
2023-02-15T14:23:48.306Z,17.48
2023-02-15T14:26:18.433Z,18.15
2023-02-15T14:29:05.660Z,14.88
2023-02-15T14:31:39.715Z,18.13
2023-02-15T14:34:09.989Z,21.05
2023-02-15T14:36:37.942Z,25.42
2023-02-15T14:39:33.589Z,21.50
2023-02-15T14:42:05.482Z,22.95
2023-02-15T14:44:37.687Z,19.02
2023-02-15T14:47:07.645Z,20.15
2023-02-15T14:49:40.899Z,19.73
2023-02-15T14:52:11.658Z,21.67
2023-02-15T14:55:01.746Z,25.42
2023-02-15T14:57:35.386Z,19.08
2023-02-15T15:00:14.693Z,18.55
2023-02-15T15:02:52.766Z,22.60
2023-02-15T15:05:31.214Z,28.38
2023-02-15T15:08:02.216Z,21.17
2023-02-15T15:10:42.141Z,23.83
2023-02-15T15:13:39.668Z,27.98
2023-02-15T15:16:25.832Z,25.30
2023-02-15T15:18:57.249Z,31.33
2023-02-15T15:21:45.816Z,33.72
2023-02-15T15:24:47.992Z,27.15
2023-02-15T15:27:34.181Z,26.85
2023-02-15T15:30:25.485Z,29.35
2023-02-15T15:32:57.654Z,22.55
2023-02-15T15:35:29.402Z,27.25
2023-02-15T15:38:06.514Z,23.58
2023-02-15T15:40:57.269Z,23.75
2023-02-15T15:43:41.600Z,27.63
2023-02-15T15:46:33.172Z,27.23
2023-02-15T15:49:14.740Z,25.65
2023-02-15T15:51:47.630Z,24.60
2023-02-15T15:54:17.295Z,26.85
2023-02-15T15:56:57.032Z,27.10
2023-02-15T15:59:43.184Z,26.52
2023-02-15T16:02:17.830Z,27.95
2023-02-15T16:04:46.926Z,23.08
2023-02-15T16:07:38.433Z,20.58
2023-02-15T16:10:06.865Z,25.90
2023-02-15T16:12:40.697Z,22.88
2023-02-15T16:15:16.286Z,26.45
2023-02-15T16:17:51.847Z,24.48
2023-02-15T16:20:22.678Z,26.45
2023-02-15T16:22:54.661Z,28.10
2023-02-15T16:25:31.715Z,28.77
2023-02-15T16:27:59.250Z,26.97
2023-02-15T16:30:34.377Z,21.30
2023-02-15T16:33:10.772Z,30.50
2023-02-15T16:35:42.653Z,31.15
2023-02-15T16:38:14.557Z,35.55
2023-02-15T16:40:53.551Z,39.58
2023-02-15T16:43:23.688Z,29.10
2023-02-15T16:45:51.274Z,30.30
2023-02-15T16:48:22.045Z,29.23
2023-02-15T16:50:51.051Z,35.78
2023-02-15T16:53:21.170Z,34.28
2023-02-15T16:55:51.474Z,40.45
2023-02-15T16:58:25.481Z,34.88
2023-02-15T17:00:54.406Z,45.75
2023-02-15T17:03:27.751Z,44.22
2023-02-15T17:05:56.514Z,28.90
2023-02-15T17:08:30.914Z,34.40
2023-02-15T17:11:13.436Z,36.60
2023-02-15T17:13:41.127Z,34.67
2023-02-15T17:16:29.388Z,47.85
2023-02-15T17:18:59.505Z,38.22
2023-02-15T17:21:32.560Z,37.40
2023-02-15T17:24:03.542Z,43.55
2023-02-15T17:26:32.366Z,31.52
2023-02-15T17:29:02.967Z,32.33
2023-02-15T17:31:33.230Z,29.30
2023-02-15T17:34:06.682Z,35.95
2023-02-15T17:36:34.022Z,31.95
2023-02-15T17:39:03.195Z,40.50
2023-02-15T17:41:33.603Z,41.80
2023-02-15T17:44:00.974Z,38.38
2023-02-15T17:46:32.840Z,37.80
2023-02-15T17:49:02.072Z,43.97
2023-02-15T17:51:29.559Z,46.83
2023-02-15T17:54:14.828Z,52.05
2023-02-15T17:56:42.227Z,46.30
2023-02-15T17:59:14.296Z,40.50
2023-02-15T18:02:04.352Z,37.28
2023-02-15T18:04:51.404Z,40.95
2023-02-15T18:07:37.115Z,40.10
2023-02-15T18:10:22.813Z,37.45
2023-02-15T18:12:51.989Z,44.78
2023-02-15T18:15:19.452Z,53.75
2023-02-15T18:17:48.989Z,37.38
2023-02-15T18:20:20.007Z,44.47
2023-02-15T18:22:47.802Z,48.58
2023-02-15T18:25:18.920Z,74.40
2023-02-15T18:27:46.403Z,59.63
2023-02-15T18:30:15.267Z,69.03
2023-02-15T18:32:43.116Z,58.75
2023-02-15T18:35:14.967Z,57.72
2023-02-15T18:37:46.501Z,56.92
2023-02-15T18:40:18.171Z,72.55
2023-02-15T18:42:47.805Z,58.15
2023-02-15T18:45:19.223Z,51.78
2023-02-15T18:47:47.112Z,54.88
2023-02-15T18:57:52.102Z,47.08
2023-02-15T19:00:31.729Z,41.00
2023-02-15T19:02:59.905Z,36.78
2023-02-15T19:05:28.435Z,39.70
2023-02-15T19:07:56.244Z,37.58
2023-02-15T19:10:26.138Z,35.13
2023-02-15T19:13:11.929Z,36.88
2023-02-15T19:15:39.591Z,31.05
2023-02-15T19:18:10.178Z,39.60
2023-02-15T19:20:40.448Z,32.60
2023-02-15T19:23:09.067Z,40.35
2023-02-15T19:25:38.957Z,35.42
2023-02-15T19:28:10.927Z,31.38
2023-02-15T19:30:40.764Z,40.53
2023-02-15T19:33:18.922Z,32.33
2023-02-15T19:35:47.652Z,37.22
2023-02-15T19:38:18.318Z,36.08
2023-02-15T19:40:48.751Z,39.97
2023-02-15T19:43:26.423Z,34.00
2023-02-15T19:45:54.137Z,35.13
2023-02-15T19:48:23.893Z,33.00
2023-02-15T19:50:52.626Z,34.55
2023-02-15T19:53:23.974Z,36.13
2023-02-15T19:55:54.996Z,31.13
2023-02-15T19:58:23.968Z,30.75
2023-02-15T20:00:56.714Z,33.10
2023-02-15T20:03:24.384Z,32.40
2023-02-15T20:05:57.082Z,41.35
2023-02-15T20:08:27.245Z,34.90
2023-02-15T20:10:57.367Z,42.30
2023-02-15T20:13:31.397Z,34.45
2023-02-15T20:16:06.226Z,34.88
2023-02-15T20:18:36.389Z,35.75
2023-02-15T20:21:05.635Z,36.38
2023-02-15T20:23:35.589Z,40.08
2023-02-15T20:26:08.114Z,36.17
2023-02-15T20:28:36.958Z,38.20
2023-02-15T20:31:04.830Z,37.88
2023-02-15T20:36:03.914Z,34.40
2023-02-15T20:38:34.531Z,34.05
2023-02-15T20:41:19.468Z,35.25
2023-02-15T20:43:48.742Z,41.53
2023-02-15T20:46:16.303Z,39.97
2023-02-15T20:48:43.674Z,42.35
2023-02-15T20:51:18.985Z,36.22
2023-02-15T20:53:46.714Z,35.28
2023-02-15T20:56:19.979Z,37.25
2023-02-15T20:58:51.229Z,35.78
2023-02-15T21:01:20.634Z,39.60
2023-02-15T21:03:50.400Z,44.03
2023-02-15T21:06:20.242Z,39.17
2023-02-15T21:08:50.607Z,35.65
2023-02-15T21:11:20.039Z,42.97
2023-02-15T21:13:49.570Z,32.17
2023-02-15T21:16:20.230Z,39.53
2023-02-15T21:18:52.083Z,42.17
2023-02-15T21:21:23.418Z,45.00
2023-02-15T21:23:52.335Z,38.22
2023-02-15T21:26:24.550Z,37.58
2023-02-15T21:28:57.360Z,37.60
2023-02-15T21:31:27.231Z,40.47
2023-02-15T21:33:56.995Z,46.53
2023-02-15T21:36:26.710Z,35.92
2023-02-15T21:38:56.463Z,41.60
2023-02-15T21:41:46.029Z,36.80
2023-02-15T21:44:42.640Z,37.90
2023-02-15T21:47:35.587Z,42.47
2023-02-15T21:50:29.617Z,46.50
2023-02-15T21:53:02.274Z,39.97
2023-02-15T21:55:37.269Z,39.70
2023-02-15T21:58:06.155Z,47.00
2023-02-15T22:00:41.557Z,40.00
2023-02-15T22:03:09.038Z,41.13
2023-02-15T22:05:39.230Z,45.15
2023-02-15T22:08:14.400Z,41.47
2023-02-15T22:10:42.441Z,43.92
2023-02-15T22:15:52.583Z,47.55
2023-02-15T22:18:23.911Z,39.70
2023-02-15T22:20:54.773Z,38.35
2023-02-15T22:23:22.818Z,41.17
2023-02-15T22:25:54.565Z,46.05
2023-02-15T22:28:24.042Z,46.30
2023-02-15T22:30:57.997Z,49.97
2023-02-15T22:33:28.602Z,47.08
2023-02-15T22:35:58.277Z,45.03
2023-02-15T22:38:31.549Z,57.75
2023-02-15T22:41:07.121Z,45.92
2023-02-15T22:43:37.881Z,44.13
2023-02-15T22:46:07.964Z,47.05
2023-02-15T22:48:35.871Z,49.42
2023-02-15T22:51:03.642Z,45.83
2023-02-15T22:53:33.194Z,43.97
2023-02-15T22:56:05.876Z,48.13
2023-02-15T22:58:35.121Z,47.45
2023-02-15T23:01:04.771Z,43.45
2023-02-15T23:03:34.297Z,42.25
2023-02-15T23:06:01.931Z,44.55
2023-02-15T23:08:29.365Z,45.45
2023-02-15T23:10:59.077Z,42.78
2023-02-15T23:13:28.756Z,41.10
2023-02-15T23:15:57.233Z,47.42
2023-02-15T23:18:33.332Z,47.30
2023-02-15T23:21:06.251Z,38.30
2023-02-15T23:23:34.764Z,50.47
2023-02-15T23:26:04.353Z,49.92
2023-02-15T23:28:38.408Z,47.63
2023-02-15T23:31:11.652Z,44.15
2023-02-15T23:33:39.219Z,48.88
2023-02-15T23:36:17.147Z,42.95
2023-02-15T23:39:27.564Z,46.38
2023-02-15T23:41:54.918Z,45.20
2023-02-15T23:44:22.554Z,54.25
2023-02-15T23:46:50.598Z,45.75
2023-02-15T23:49:19.240Z,39.60
2023-02-15T23:51:48.678Z,47.33
2023-02-15T23:54:16.852Z,45.35
2023-02-15T23:56:45.255Z,42.58
2023-02-15T23:59:16.199Z,47.83
